sensor_id;sensor_type;location;lat;lon;timestamp;temperature;humidity
18175;DHT22;9212;50.894;16.714;2023-03-14T00:00:17;11.50;99.90
18175;DHT22;9212;50.894;16.714;2023-03-14T00:02:46;11.60;99.90
18175;DHT22;9212;50.894;16.714;2023-03-14T00:05:18;11.40;99.90
18175;DHT22;9212;50.894;16.714;2023-03-14T00:10:14;11.70;99.90
18175;DHT22;9212;50.894;16.714;2023-03-14T00:15:09;11.60;99.90
18175;DHT22;9212;50.894;16.714;2023-03-14T00:20:07;11.90;99.90
18175;DHT22;9212;50.894;16.714;2023-03-14T00:22:37;11.80;99.90
18175;DHT22;9212;50.894;16.714;2023-03-14T00:25:05;12.00;99.90
18175;DHT22;9212;50.894;16.714;2023-03-14T00:37:23;11.80;99.90
18175;DHT22;9212;50.894;16.714;2023-03-14T00:39:51;11.70;99.90
18175;DHT22;9212;50.894;16.714;2023-03-14T00:54:37;11.10;99.90
18175;DHT22;9212;50.894;16.714;2023-03-14T00:57:04;10.40;99.90
18175;DHT22;9212;50.894;16.714;2023-03-14T00:59:31;10.80;99.90
18175;DHT22;9212;50.894;16.714;2023-03-14T01:11:49;11.10;99.90
18175;DHT22;9212;50.894;16.714;2023-03-14T01:21:38;10.50;99.90
18175;DHT22;9212;50.894;16.714;2023-03-14T01:24:06;10.60;99.90
18175;DHT22;9212;50.894;16.714;2023-03-14T01:26:34;10.40;99.90
18175;DHT22;9212;50.894;16.714;2023-03-14T01:41:20;10.00;99.90
18175;DHT22;9212;50.894;16.714;2023-03-14T01:43:48;9.90;99.90
18175;DHT22;9212;50.894;16.714;2023-03-14T01:46:21;9.70;99.90
18175;DHT22;9212;50.894;16.714;2023-03-14T01:48:55;9.80;99.90
18175;DHT22;9212;50.894;16.714;2023-03-14T01:51:27;9.70;99.90
18175;DHT22;9212;50.894;16.714;2023-03-14T01:53:59;10.20;99.90
18175;DHT22;9212;50.894;16.714;2023-03-14T01:56:29;10.80;99.90
18175;DHT22;9212;50.894;16.714;2023-03-14T01:58:58;11.00;99.90
18175;DHT22;9212;50.894;16.714;2023-03-14T02:01:27;11.20;99.90
18175;DHT22;9212;50.894;16.714;2023-03-14T02:03:57;11.50;99.90
18175;DHT22;9212;50.894;16.714;2023-03-14T02:06:29;11.60;99.90
18175;DHT22;9212;50.894;16.714;2023-03-14T02:08:59;11.60;99.90
18175;DHT22;9212;50.894;16.714;2023-03-14T02:11:28;11.80;99.90
18175;DHT22;9212;50.894;16.714;2023-03-14T02:13:56;11.70;99.90
18175;DHT22;9212;50.894;16.714;2023-03-14T02:21:24;11.90;99.90
18175;DHT22;9212;50.894;16.714;2023-03-14T02:23:59;11.90;99.90
18175;DHT22;9212;50.894;16.714;2023-03-14T02:26:34;12.00;99.90
18175;DHT22;9212;50.894;16.714;2023-03-14T02:29:04;11.90;99.90
18175;DHT22;9212;50.894;16.714;2023-03-14T02:31:32;12.00;99.90
18175;DHT22;9212;50.894;16.714;2023-03-14T02:34:01;12.10;99.90
18175;DHT22;9212;50.894;16.714;2023-03-14T02:36:29;12.10;99.90
18175;DHT22;9212;50.894;16.714;2023-03-14T02:39:04;12.10;99.90
18175;DHT22;9212;50.894;16.714;2023-03-14T02:48:56;11.90;99.90
18175;DHT22;9212;50.894;16.714;2023-03-14T02:51:26;11.90;99.90
18175;DHT22;9212;50.894;16.714;2023-03-14T03:01:15;11.60;99.90
18175;DHT22;9212;50.894;16.714;2023-03-14T03:11:06;11.80;99.90
18175;DHT22;9212;50.894;16.714;2023-03-14T03:13:33;12.00;99.90
18175;DHT22;9212;50.894;16.714;2023-03-14T03:20:59;11.30;99.90
18175;DHT22;9212;50.894;16.714;2023-03-14T03:25:54;11.30;99.90
18175;DHT22;9212;50.894;16.714;2023-03-14T03:28:21;11.20;99.90
18175;DHT22;9212;50.894;16.714;2023-03-14T03:35:44;11.30;99.90
18175;DHT22;9212;50.894;16.714;2023-03-14T03:40:40;11.50;99.90
18175;DHT22;9212;50.894;16.714;2023-03-14T04:05:15;11.70;99.90
18175;DHT22;9212;50.894;16.714;2023-03-14T04:10:10;11.90;99.90
18175;DHT22;9212;50.894;16.714;2023-03-14T04:15:07;12.00;99.90
18175;DHT22;9212;50.894;16.714;2023-03-14T04:44:36;11.80;99.90
18175;DHT22;9212;50.894;16.714;2023-03-14T04:47:05;11.40;99.90
18175;DHT22;9212;50.894;16.714;2023-03-14T04:49:32;11.80;99.90
18175;DHT22;9212;50.894;16.714;2023-03-14T04:51:59;11.00;99.90
18175;DHT22;9212;50.894;16.714;2023-03-14T05:04:16;11.20;99.90
18175;DHT22;9212;50.894;16.714;2023-03-14T05:06:43;11.30;99.90
18175;DHT22;9212;50.894;16.714;2023-03-14T05:11:38;11.20;99.90
18175;DHT22;9212;50.894;16.714;2023-03-14T05:18:59;11.10;99.90
18175;DHT22;9212;50.894;16.714;2023-03-14T05:26:23;11.10;99.90
18175;DHT22;9212;50.894;16.714;2023-03-14T05:36:12;10.60;99.90
18175;DHT22;9212;50.894;16.714;2023-03-14T05:38:40;11.00;99.90
18175;DHT22;9212;50.894;16.714;2023-03-14T05:41:07;11.20;99.90
18175;DHT22;9212;50.894;16.714;2023-03-14T05:43:34;11.20;99.90
18175;DHT22;9212;50.894;16.714;2023-03-14T05:48:28;10.80;99.90
18175;DHT22;9212;50.894;16.714;2023-03-14T05:50:56;10.80;99.90
18175;DHT22;9212;50.894;16.714;2023-03-14T05:55:52;10.80;99.90
18175;DHT22;9212;50.894;16.714;2023-03-14T06:00:47;11.10;99.90
18175;DHT22;9212;50.894;16.714;2023-03-14T06:03:14;11.50;99.90
18175;DHT22;9212;50.894;16.714;2023-03-14T06:05:41;10.50;99.90
18175;DHT22;9212;50.894;16.714;2023-03-14T06:08:08;10.30;99.90
18175;DHT22;9212;50.894;16.714;2023-03-14T06:10:35;10.60;99.90
18175;DHT22;9212;50.894;16.714;2023-03-14T06:13:04;10.20;99.90
18175;DHT22;9212;50.894;16.714;2023-03-14T06:15:31;10.20;99.90
18175;DHT22;9212;50.894;16.714;2023-03-14T06:17:59;10.40;99.90
18175;DHT22;9212;50.894;16.714;2023-03-14T06:22:53;10.20;99.90
18175;DHT22;9212;50.894;16.714;2023-03-14T06:30:17;9.90;99.90
18175;DHT22;9212;50.894;16.714;2023-03-14T06:35:11;10.60;99.90
18175;DHT22;9212;50.894;16.714;2023-03-14T06:40:06;10.00;99.90
18175;DHT22;9212;50.894;16.714;2023-03-14T06:45:01;10.40;99.90
18175;DHT22;9212;50.894;16.714;2023-03-14T06:47:30;10.40;99.90
18175;DHT22;9212;50.894;16.714;2023-03-14T06:49:56;10.40;99.90
18175;DHT22;9212;50.894;16.714;2023-03-14T06:57:18;11.50;99.90
18175;DHT22;9212;50.894;16.714;2023-03-14T06:59:45;11.20;99.90
18175;DHT22;9212;50.894;16.714;2023-03-14T07:02:12;10.10;99.90
18175;DHT22;9212;50.894;16.714;2023-03-14T07:04:41;10.60;99.90
18175;DHT22;9212;50.894;16.714;2023-03-14T07:07:08;10.10;99.90
18175;DHT22;9212;50.894;16.714;2023-03-14T07:09:35;10.50;99.90
18175;DHT22;9212;50.894;16.714;2023-03-14T07:12:03;10.30;99.90
18175;DHT22;9212;50.894;16.714;2023-03-14T07:14:31;10.40;99.90
18175;DHT22;9212;50.894;16.714;2023-03-14T07:16:58;11.40;99.90
18175;DHT22;9212;50.894;16.714;2023-03-14T07:19:25;11.20;99.90
18175;DHT22;9212;50.894;16.714;2023-03-14T07:21:53;10.10;99.90
18175;DHT22;9212;50.894;16.714;2023-03-14T07:34:10;10.10;99.90
18175;DHT22;9212;50.894;16.714;2023-03-14T07:39:06;10.50;99.90
18175;DHT22;9212;50.894;16.714;2023-03-14T07:54:17;10.60;99.90
18175;DHT22;9212;50.894;16.714;2023-03-14T07:56:44;10.70;99.90
18175;DHT22;9212;50.894;16.714;2023-03-14T07:59:11;10.50;99.90
18175;DHT22;9212;50.894;16.714;2023-03-14T08:01:38;10.90;99.90
18175;DHT22;9212;50.894;16.714;2023-03-14T08:04:06;11.30;99.90
18175;DHT22;9212;50.894;16.714;2023-03-14T08:09:00;10.80;99.90
18175;DHT22;9212;50.894;16.714;2023-03-14T08:11:28;11.00;99.90
18175;DHT22;9212;50.894;16.714;2023-03-14T08:13:55;11.00;99.90
18175;DHT22;9212;50.894;16.714;2023-03-14T08:16:23;11.00;99.90
18175;DHT22;9212;50.894;16.714;2023-03-14T08:18:50;11.10;99.90
18175;DHT22;9212;50.894;16.714;2023-03-14T08:21:17;11.00;99.90
18175;DHT22;9212;50.894;16.714;2023-03-14T08:23:44;11.60;99.90
18175;DHT22;9212;50.894;16.714;2023-03-14T08:26:11;11.10;99.90
18175;DHT22;9212;50.894;16.714;2023-03-14T08:31:07;11.10;99.90
18175;DHT22;9212;50.894;16.714;2023-03-14T08:33:34;11.30;99.90
18175;DHT22;9212;50.894;16.714;2023-03-14T08:36:01;11.40;99.90
18175;DHT22;9212;50.894;16.714;2023-03-14T08:38:28;11.40;99.90
18175;DHT22;9212;50.894;16.714;2023-03-14T08:40:56;11.90;99.90
18175;DHT22;9212;50.894;16.714;2023-03-14T08:43:24;11.60;99.90
18175;DHT22;9212;50.894;16.714;2023-03-14T08:45:57;11.40;99.90
18175;DHT22;9212;50.894;16.714;2023-03-14T08:48:24;11.40;99.90
18175;DHT22;9212;50.894;16.714;2023-03-14T08:53:19;11.30;99.90
18175;DHT22;9212;50.894;16.714;2023-03-14T09:03:11;11.40;99.90
18175;DHT22;9212;50.894;16.714;2023-03-14T09:10:33;11.50;99.90
18175;DHT22;9212;50.894;16.714;2023-03-14T09:15:29;11.60;99.90
18175;DHT22;9212;50.894;16.714;2023-03-14T09:17:57;11.70;99.90
18175;DHT22;9212;50.894;16.714;2023-03-14T09:20:26;11.60;99.90
18175;DHT22;9212;50.894;16.714;2023-03-14T09:22:53;11.00;99.90
18175;DHT22;9212;50.894;16.714;2023-03-14T09:27:47;12.00;99.90
18175;DHT22;9212;50.894;16.714;2023-03-14T09:30:14;11.60;99.90
18175;DHT22;9212;50.894;16.714;2023-03-14T09:40:06;11.60;99.90
18175;DHT22;9212;50.894;16.714;2023-03-14T09:42:37;11.80;99.90
18175;DHT22;9212;50.894;16.714;2023-03-14T09:45:11;11.80;99.90
18175;DHT22;9212;50.894;16.714;2023-03-14T09:47:40;11.70;99.90
18175;DHT22;9212;50.894;16.714;2023-03-14T09:50:12;11.90;99.90
18175;DHT22;9212;50.894;16.714;2023-03-14T09:52:43;11.90;99.90
18175;DHT22;9212;50.894;16.714;2023-03-14T09:55:13;11.90;99.90
18175;DHT22;9212;50.894;16.714;2023-03-14T09:57:42;11.80;99.90
18175;DHT22;9212;50.894;16.714;2023-03-14T10:00:15;11.90;99.90
18175;DHT22;9212;50.894;16.714;2023-03-14T10:02:58;11.80;99.90
18175;DHT22;9212;50.894;16.714;2023-03-14T10:07:56;11.90;99.90
18175;DHT22;9212;50.894;16.714;2023-03-14T10:10:25;13.50;99.90
18175;DHT22;9212;50.894;16.714;2023-03-14T10:12:55;11.90;99.90
18175;DHT22;9212;50.894;16.714;2023-03-14T10:15:26;12.00;99.90
18175;DHT22;9212;50.894;16.714;2023-03-14T10:20:32;11.90;99.90
18175;DHT22;9212;50.894;16.714;2023-03-14T10:23:03;11.90;99.90
18175;DHT22;9212;50.894;16.714;2023-03-14T10:25:32;12.00;99.90
18175;DHT22;9212;50.894;16.714;2023-03-14T10:28:00;12.40;99.90
18175;DHT22;9212;50.894;16.714;2023-03-14T10:30:33;12.30;99.90
18175;DHT22;9212;50.894;16.714;2023-03-14T10:33:08;11.80;99.90
18175;DHT22;9212;50.894;16.714;2023-03-14T10:38:05;12.00;99.90
18175;DHT22;9212;50.894;16.714;2023-03-14T10:40:34;12.30;99.90
18175;DHT22;9212;50.894;16.714;2023-03-14T10:43:05;12.00;99.90
18175;DHT22;9212;50.894;16.714;2023-03-14T10:45:35;12.10;99.90
18175;DHT22;9212;50.894;16.714;2023-03-14T10:48:17;12.20;99.90
18175;DHT22;9212;50.894;16.714;2023-03-14T10:50:49;12.50;99.90
18175;DHT22;9212;50.894;16.714;2023-03-14T10:53:18;12.10;99.90
18175;DHT22;9212;50.894;16.714;2023-03-14T10:58:20;12.10;99.90
18175;DHT22;9212;50.894;16.714;2023-03-14T11:00:52;11.50;99.90
18175;DHT22;9212;50.894;16.714;2023-03-14T11:03:20;12.30;99.90
18175;DHT22;9212;50.894;16.714;2023-03-14T11:05:52;12.40;99.90
18175;DHT22;9212;50.894;16.714;2023-03-14T11:08:27;12.40;99.90
18175;DHT22;9212;50.894;16.714;2023-03-14T11:11:07;12.50;99.90
18175;DHT22;9212;50.894;16.714;2023-03-14T11:13:40;12.50;99.90
18175;DHT22;9212;50.894;16.714;2023-03-14T11:16:16;12.50;99.90
18175;DHT22;9212;50.894;16.714;2023-03-14T11:21:40;12.50;99.90
18175;DHT22;9212;50.894;16.714;2023-03-14T11:24:25;12.60;99.90
18175;DHT22;9212;50.894;16.714;2023-03-14T11:26:59;12.50;99.90
18175;DHT22;9212;50.894;16.714;2023-03-14T11:29:36;12.70;99.90
18175;DHT22;9212;50.894;16.714;2023-03-14T11:32:12;12.80;99.90
18175;DHT22;9212;50.894;16.714;2023-03-14T11:34:43;12.70;99.90
18175;DHT22;9212;50.894;16.714;2023-03-14T11:37:16;12.70;99.90
18175;DHT22;9212;50.894;16.714;2023-03-14T11:39:56;12.90;99.90
18175;DHT22;9212;50.894;16.714;2023-03-14T11:42:24;12.90;99.90
18175;DHT22;9212;50.894;16.714;2023-03-14T11:44:56;13.00;99.90
18175;DHT22;9212;50.894;16.714;2023-03-14T11:47:28;12.90;99.90
18175;DHT22;9212;50.894;16.714;2023-03-14T11:50:33;12.50;99.90
18175;DHT22;9212;50.894;16.714;2023-03-14T11:53:04;12.80;99.90
18175;DHT22;9212;50.894;16.714;2023-03-14T11:55:54;12.80;99.90
18175;DHT22;9212;50.894;16.714;2023-03-14T11:58:29;13.00;99.90
18175;DHT22;9212;50.894;16.714;2023-03-14T12:00:58;13.00;99.90
18175;DHT22;9212;50.894;16.714;2023-03-14T12:03:36;13.10;99.90
18175;DHT22;9212;50.894;16.714;2023-03-14T12:06:15;13.10;99.90
18175;DHT22;9212;50.894;16.714;2023-03-14T12:08:47;13.20;99.90
18175;DHT22;9212;50.894;16.714;2023-03-14T12:11:25;13.20;99.90
18175;DHT22;9212;50.894;16.714;2023-03-14T12:14:22;12.40;99.90
18175;DHT22;9212;50.894;16.714;2023-03-14T12:16:54;13.20;99.90
18175;DHT22;9212;50.894;16.714;2023-03-14T12:19:33;13.10;99.90
18175;DHT22;9212;50.894;16.714;2023-03-14T12:22:22;13.20;99.90
18175;DHT22;9212;50.894;16.714;2023-03-14T12:24:51;13.20;99.90
18175;DHT22;9212;50.894;16.714;2023-03-14T12:28:05;13.50;99.90
18175;DHT22;9212;50.894;16.714;2023-03-14T12:39:10;13.40;99.90
18175;DHT22;9212;50.894;16.714;2023-03-14T12:41:43;12.40;99.90
18175;DHT22;9212;50.894;16.714;2023-03-14T12:44:44;13.20;99.90
18175;DHT22;9212;50.894;16.714;2023-03-14T12:48:01;13.40;99.90
18175;DHT22;9212;50.894;16.714;2023-03-14T12:50:36;13.20;99.90
18175;DHT22;9212;50.894;16.714;2023-03-14T12:53:49;13.20;99.90
18175;DHT22;9212;50.894;16.714;2023-03-14T12:56:25;13.10;99.90
18175;DHT22;9212;50.894;16.714;2023-03-14T12:59:09;12.90;99.90
18175;DHT22;9212;50.894;16.714;2023-03-14T13:01:48;13.00;99.90
18175;DHT22;9212;50.894;16.714;2023-03-14T13:04:27;13.00;99.90
18175;DHT22;9212;50.894;16.714;2023-03-14T13:06:55;13.00;99.90
18175;DHT22;9212;50.894;16.714;2023-03-14T13:12:29;12.90;99.90
18175;DHT22;9212;50.894;16.714;2023-03-14T13:14:59;13.00;99.90
18175;DHT22;9212;50.894;16.714;2023-03-14T13:17:32;12.90;99.90
18175;DHT22;9212;50.894;16.714;2023-03-14T13:20:03;12.90;99.90
18175;DHT22;9212;50.894;16.714;2023-03-14T13:22:34;12.90;99.90
18175;DHT22;9212;50.894;16.714;2023-03-14T13:25:06;13.30;99.90
18175;DHT22;9212;50.894;16.714;2023-03-14T13:27:35;13.10;99.90
18175;DHT22;9212;50.894;16.714;2023-03-14T13:30:23;12.90;99.90
18175;DHT22;9212;50.894;16.714;2023-03-14T13:32:53;12.90;99.90
18175;DHT22;9212;50.894;16.714;2023-03-14T13:35:25;12.80;99.90
18175;DHT22;9212;50.894;16.714;2023-03-14T13:37:56;12.90;99.90
18175;DHT22;9212;50.894;16.714;2023-03-14T13:40:29;13.00;99.90
18175;DHT22;9212;50.894;16.714;2023-03-14T13:43:06;13.10;99.90
18175;DHT22;9212;50.894;16.714;2023-03-14T13:45:45;13.00;99.90
18175;DHT22;9212;50.894;16.714;2023-03-14T13:48:16;12.80;99.90
18175;DHT22;9212;50.894;16.714;2023-03-14T13:50:51;12.80;99.90
18175;DHT22;9212;50.894;16.714;2023-03-14T13:58:24;13.40;99.90
18175;DHT22;9212;50.894;16.714;2023-03-14T14:01:10;13.40;99.90
18175;DHT22;9212;50.894;16.714;2023-03-14T14:03:40;13.50;99.90
18175;DHT22;9212;50.894;16.714;2023-03-14T14:06:19;13.40;99.90
18175;DHT22;9212;50.894;16.714;2023-03-14T14:11:25;13.40;99.90
18175;DHT22;9212;50.894;16.714;2023-03-14T14:13:54;13.50;99.90
18175;DHT22;9212;50.894;16.714;2023-03-14T14:16:24;13.50;99.90
18175;DHT22;9212;50.894;16.714;2023-03-14T14:18:55;13.50;99.90
18175;DHT22;9212;50.894;16.714;2023-03-14T14:21:24;13.40;99.90
18175;DHT22;9212;50.894;16.714;2023-03-14T14:31:20;13.50;99.90
18175;DHT22;9212;50.894;16.714;2023-03-14T14:33:56;13.60;99.90
18175;DHT22;9212;50.894;16.714;2023-03-14T14:36:26;13.70;99.90
18175;DHT22;9212;50.894;16.714;2023-03-14T14:38:58;14.10;99.90
18175;DHT22;9212;50.894;16.714;2023-03-14T14:41:30;13.90;99.90
18175;DHT22;9212;50.894;16.714;2023-03-14T14:43:58;13.80;99.90
18175;DHT22;9212;50.894;16.714;2023-03-14T14:46:28;14.00;99.90
18175;DHT22;9212;50.894;16.714;2023-03-14T14:49:02;13.90;99.90
18175;DHT22;9212;50.894;16.714;2023-03-14T14:51:34;13.80;99.90
18175;DHT22;9212;50.894;16.714;2023-03-14T14:54:14;14.10;99.90
18175;DHT22;9212;50.894;16.714;2023-03-14T14:56:47;14.30;99.90
18175;DHT22;9212;50.894;16.714;2023-03-14T14:59:21;15.20;99.90
18175;DHT22;9212;50.894;16.714;2023-03-14T15:06:47;14.40;99.90
18175;DHT22;9212;50.894;16.714;2023-03-14T15:09:16;14.40;99.90
18175;DHT22;9212;50.894;16.714;2023-03-14T15:11:44;14.70;99.90
18175;DHT22;9212;50.894;16.714;2023-03-14T15:14:10;14.20;99.90
18175;DHT22;9212;50.894;16.714;2023-03-14T15:16:38;14.10;99.90
18175;DHT22;9212;50.894;16.714;2023-03-14T15:19:11;13.90;99.90
18175;DHT22;9212;50.894;16.714;2023-03-14T15:24:09;13.50;99.90
18175;DHT22;9212;50.894;16.714;2023-03-14T15:31:34;13.20;99.90
18175;DHT22;9212;50.894;16.714;2023-03-14T15:36:30;13.20;99.90
18175;DHT22;9212;50.894;16.714;2023-03-14T15:39:00;13.20;99.90
18175;DHT22;9212;50.894;16.714;2023-03-14T15:41:27;13.20;99.90
18175;DHT22;9212;50.894;16.714;2023-03-14T15:43:55;12.90;99.90
18175;DHT22;9212;50.894;16.714;2023-03-14T15:48:51;12.80;99.90
18175;DHT22;9212;50.894;16.714;2023-03-14T15:56:16;12.60;99.90
18175;DHT22;9212;50.894;16.714;2023-03-14T16:01:12;12.50;99.90
18175;DHT22;9212;50.894;16.714;2023-03-14T16:16:02;13.00;99.90
18175;DHT22;9212;50.894;16.714;2023-03-14T16:18:31;12.30;99.90
18175;DHT22;9212;50.894;16.714;2023-03-14T16:21:00;12.40;99.90
18175;DHT22;9212;50.894;16.714;2023-03-14T16:23:28;12.00;99.90
18175;DHT22;9212;50.894;16.714;2023-03-14T16:25:55;11.90;99.90
18175;DHT22;9212;50.894;16.714;2023-03-14T16:30:51;11.40;99.90
18175;DHT22;9212;50.894;16.714;2023-03-14T16:35:53;11.80;99.90
18175;DHT22;9212;50.894;16.714;2023-03-14T16:40:56;12.40;99.90
18175;DHT22;9212;50.894;16.714;2023-03-14T16:45:52;11.40;99.90
18175;DHT22;9212;50.894;16.714;2023-03-14T16:50:49;11.30;99.90
18175;DHT22;9212;50.894;16.714;2023-03-14T16:53:17;11.30;99.90
18175;DHT22;9212;50.894;16.714;2023-03-14T16:55:44;11.20;99.90
18175;DHT22;9212;50.894;16.714;2023-03-14T16:58:12;11.10;99.90
18175;DHT22;9212;50.894;16.714;2023-03-14T17:03:08;12.30;99.90
18175;DHT22;9212;50.894;16.714;2023-03-14T17:05:36;11.30;99.90
18175;DHT22;9212;50.894;16.714;2023-03-14T17:10:33;11.40;99.90
18175;DHT22;9212;50.894;16.714;2023-03-14T17:13:00;11.70;99.90
18175;DHT22;9212;50.894;16.714;2023-03-14T17:17:56;11.30;99.90
18175;DHT22;9212;50.894;16.714;2023-03-14T17:20:27;11.20;99.90
18175;DHT22;9212;50.894;16.714;2023-03-14T17:22:54;11.10;99.90
18175;DHT22;9212;50.894;16.714;2023-03-14T17:25:21;11.10;99.90
18175;DHT22;9212;50.894;16.714;2023-03-14T17:27:48;12.00;99.90
18175;DHT22;9212;50.894;16.714;2023-03-14T17:30:16;12.10;99.90
18175;DHT22;9212;50.894;16.714;2023-03-14T17:32:43;11.20;99.90
18175;DHT22;9212;50.894;16.714;2023-03-14T17:37:38;11.30;99.90
18175;DHT22;9212;50.894;16.714;2023-03-14T17:40:06;12.10;99.90
18175;DHT22;9212;50.894;16.714;2023-03-14T17:42:33;12.30;99.90
18175;DHT22;9212;50.894;16.714;2023-03-14T17:45:01;11.30;99.90
18175;DHT22;9212;50.894;16.714;2023-03-14T17:47:28;11.50;99.90
18175;DHT22;9212;50.894;16.714;2023-03-14T17:49:55;11.20;99.90
18175;DHT22;9212;50.894;16.714;2023-03-14T17:52:22;12.00;99.90
18175;DHT22;9212;50.894;16.714;2023-03-14T18:02:13;11.10;99.90
18175;DHT22;9212;50.894;16.714;2023-03-14T18:04:40;11.10;99.90
18175;DHT22;9212;50.894;16.714;2023-03-14T18:07:07;11.20;99.90
18175;DHT22;9212;50.894;16.714;2023-03-14T18:09:34;11.30;99.90
18175;DHT22;9212;50.894;16.714;2023-03-14T18:12:03;11.30;99.90
18175;DHT22;9212;50.894;16.714;2023-03-14T18:19:24;10.50;99.90
18175;DHT22;9212;50.894;16.714;2023-03-14T18:21:51;10.20;99.90
18175;DHT22;9212;50.894;16.714;2023-03-14T18:24:19;10.70;99.90
18175;DHT22;9212;50.894;16.714;2023-03-14T18:26:46;11.00;99.90
18175;DHT22;9212;50.894;16.714;2023-03-14T18:29:15;10.40;99.90
18175;DHT22;9212;50.894;16.714;2023-03-14T18:31:42;10.60;99.90
18175;DHT22;9212;50.894;16.714;2023-03-14T18:34:10;10.50;99.90
18175;DHT22;9212;50.894;16.714;2023-03-14T18:36:38;10.70;99.90
18175;DHT22;9212;50.894;16.714;2023-03-14T18:39:05;10.40;99.90
18175;DHT22;9212;50.894;16.714;2023-03-14T18:41:35;10.60;99.90
18175;DHT22;9212;50.894;16.714;2023-03-14T18:44:03;11.10;99.90
18175;DHT22;9212;50.894;16.714;2023-03-14T18:46:31;10.70;99.90
18175;DHT22;9212;50.894;16.714;2023-03-14T18:48:58;11.20;99.90
18175;DHT22;9212;50.894;16.714;2023-03-14T18:51:30;10.80;99.90
18175;DHT22;9212;50.894;16.714;2023-03-14T18:53:58;10.70;99.90
18175;DHT22;9212;50.894;16.714;2023-03-14T18:56:26;11.00;99.90
18175;DHT22;9212;50.894;16.714;2023-03-14T18:58:54;10.90;99.90
18175;DHT22;9212;50.894;16.714;2023-03-14T19:01:21;11.70;99.90
18175;DHT22;9212;50.894;16.714;2023-03-14T19:03:51;10.90;99.90
18175;DHT22;9212;50.894;16.714;2023-03-14T19:06:19;11.20;99.90
18175;DHT22;9212;50.894;16.714;2023-03-14T19:08:46;11.10;99.90
18175;DHT22;9212;50.894;16.714;2023-03-14T19:11:13;11.00;99.90
18175;DHT22;9212;50.894;16.714;2023-03-14T19:13:41;11.30;99.90
18175;DHT22;9212;50.894;16.714;2023-03-14T19:16:10;11.20;99.90
18175;DHT22;9212;50.894;16.714;2023-03-14T19:21:08;11.20;99.90
18175;DHT22;9212;50.894;16.714;2023-03-14T19:23:38;11.30;99.90
18175;DHT22;9212;50.894;16.714;2023-03-14T19:26:06;11.20;99.90
18175;DHT22;9212;50.894;16.714;2023-03-14T19:31:03;11.40;99.90
18175;DHT22;9212;50.894;16.714;2023-03-14T19:35:58;11.30;99.90
18175;DHT22;9212;50.894;16.714;2023-03-14T19:40:57;11.30;99.90
18175;DHT22;9212;50.894;16.714;2023-03-14T19:45:53;10.80;99.90
18175;DHT22;9212;50.894;16.714;2023-03-14T19:48:20;9.10;99.90
18175;DHT22;9212;50.894;16.714;2023-03-14T19:50:54;8.00;99.90
18175;DHT22;9212;50.894;16.714;2023-03-14T19:55:50;6.70;99.90
18175;DHT22;9212;50.894;16.714;2023-03-14T19:58:17;6.70;99.90
18175;DHT22;9212;50.894;16.714;2023-03-14T20:00:44;7.10;99.90
18175;DHT22;9212;50.894;16.714;2023-03-14T20:05:39;6.40;99.90
18175;DHT22;9212;50.894;16.714;2023-03-14T20:08:09;6.70;99.90
18175;DHT22;9212;50.894;16.714;2023-03-14T20:10:36;7.10;99.90
18175;DHT22;9212;50.894;16.714;2023-03-14T20:22:55;6.20;99.90
18175;DHT22;9212;50.894;16.714;2023-03-14T20:27:50;5.90;99.90
18175;DHT22;9212;50.894;16.714;2023-03-14T20:30:20;5.70;99.90
18175;DHT22;9212;50.894;16.714;2023-03-14T20:32:48;5.70;99.90
18175;DHT22;9212;50.894;16.714;2023-03-14T20:35:16;5.40;99.90
18175;DHT22;9212;50.894;16.714;2023-03-14T20:37:49;5.00;99.90
18175;DHT22;9212;50.894;16.714;2023-03-14T20:40:18;5.00;99.90
18175;DHT22;9212;50.894;16.714;2023-03-14T20:50:09;4.50;99.90
18175;DHT22;9212;50.894;16.714;2023-03-14T20:55:05;4.10;99.90
18175;DHT22;9212;50.894;16.714;2023-03-14T20:57:32;3.90;99.90
18175;DHT22;9212;50.894;16.714;2023-03-14T20:59:59;3.80;99.90
18175;DHT22;9212;50.894;16.714;2023-03-14T21:02:26;3.20;99.90
18175;DHT22;9212;50.894;16.714;2023-03-14T21:04:57;3.40;99.90
18175;DHT22;9212;50.894;16.714;2023-03-14T21:14:46;3.30;99.90
18175;DHT22;9212;50.894;16.714;2023-03-14T21:22:11;3.20;99.90
18175;DHT22;9212;50.894;16.714;2023-03-14T21:37:00;3.90;99.90
18175;DHT22;9212;50.894;16.714;2023-03-14T21:39:29;2.70;99.90
18175;DHT22;9212;50.894;16.714;2023-03-14T21:41:56;3.10;99.90
18175;DHT22;9212;50.894;16.714;2023-03-14T22:04:04;3.70;99.90
18175;DHT22;9212;50.894;16.714;2023-03-14T22:11:27;2.80;99.90
18175;DHT22;9212;50.894;16.714;2023-03-14T22:36:03;2.70;99.90
18175;DHT22;9212;50.894;16.714;2023-03-14T22:40:59;2.80;99.90
18175;DHT22;9212;50.894;16.714;2023-03-14T22:45:58;3.70;99.90
18175;DHT22;9212;50.894;16.714;2023-03-14T23:00:50;2.60;99.90
18175;DHT22;9212;50.894;16.714;2023-03-14T23:15:39;2.70;99.90
18175;DHT22;9212;50.894;16.714;2023-03-14T23:32:55;2.60;99.90
18175;DHT22;9212;50.894;16.714;2023-03-14T23:40:18;2.20;99.90
18175;DHT22;9212;50.894;16.714;2023-03-14T23:42:47;2.70;99.90
18175;DHT22;9212;50.894;16.714;2023-03-14T23:45:14;2.40;99.90
18175;DHT22;9212;50.894;16.714;2023-03-14T23:50:10;3.00;99.90
18175;DHT22;9212;50.894;16.714;2023-03-14T23:55:04;2.80;99.90
